createdAt,value
2018-09-04T00:00:52.016Z,473.70
2018-09-04T00:03:34.094Z,310.00
2018-09-04T00:06:14.649Z,345.97
2018-09-04T00:08:55.538Z,338.47
2018-09-04T00:11:36.072Z,331.13
2018-09-04T00:14:16.058Z,304.30
2018-09-04T00:16:54.911Z,289.13
2018-09-04T00:19:36.099Z,354.30
2018-09-04T00:22:18.538Z,430.63
2018-09-04T00:24:58.689Z,455.93
2018-09-04T00:27:38.134Z,322.40
2018-09-04T00:30:17.878Z,391.17
2018-09-04T00:33:00.293Z,583.13
2018-09-04T00:35:41.174Z,184.50
2018-09-04T00:38:28.616Z,138.33
2018-09-04T00:41:07.992Z,194.73
2018-09-04T00:43:47.389Z,287.33
2018-09-04T00:46:30.992Z,514.97
2018-09-04T00:49:11.218Z,561.60
2018-09-04T00:51:52.531Z,601.43
2018-09-04T00:54:30.753Z,596.67
2018-09-04T00:57:10.778Z,207.70
2018-09-04T00:59:51.074Z,283.87
2018-09-04T01:02:32.991Z,251.83
2018-09-04T01:05:13.356Z,388.33
2018-09-04T01:07:53.613Z,386.17
2018-09-04T01:10:35.590Z,731.07
2018-09-04T01:13:16.131Z,447.80
2018-09-04T01:15:56.113Z,666.33
2018-09-04T01:18:36.816Z,527.77
2018-09-04T01:21:16.389Z,129.50
2018-09-04T01:23:59.653Z,182.73
2018-09-04T01:26:40.078Z,201.07
2018-09-04T01:29:19.456Z,380.30
2018-09-04T01:31:59.093Z,399.43
2018-09-04T01:34:42.452Z,181.40
2018-09-04T01:37:22.240Z,227.60
2018-09-04T01:40:00.253Z,220.00
2018-09-04T01:42:41.393Z,299.37
2018-09-04T01:45:20.034Z,481.17
2018-09-04T01:48:03.968Z,191.83
2018-09-04T01:50:42.637Z,383.97
2018-09-04T01:53:24.594Z,268.90
2018-09-04T01:56:03.875Z,273.27
2018-09-04T01:58:45.611Z,560.40
2018-09-04T02:01:26.169Z,568.47
2018-09-04T02:04:06.517Z,523.87
2018-09-04T02:06:49.234Z,334.13
2018-09-04T02:09:30.199Z,264.63
2018-09-04T02:12:10.531Z,427.63
2018-09-04T02:14:50.858Z,345.10
2018-09-04T02:17:34.754Z,174.20
2018-09-04T02:20:15.814Z,68.00
2018-09-04T02:23:01.651Z,368.23
2018-09-04T02:25:42.218Z,381.53
2018-09-04T02:28:25.915Z,178.67
2018-09-04T02:31:11.774Z,600.37
2018-09-04T02:33:50.560Z,267.40
2018-09-04T02:36:30.093Z,521.80
2018-09-04T02:39:13.933Z,429.07
2018-09-04T02:41:54.851Z,157.23
2018-09-04T02:44:36.730Z,102.47
2018-09-04T02:47:15.057Z,557.27
2018-09-04T02:49:56.554Z,362.73
2018-09-04T04:07:16.901Z,597.93
2018-09-04T04:09:57.881Z,343.80
2018-09-04T04:12:39.066Z,419.67
2018-09-04T04:15:19.741Z,538.93
2018-09-04T04:18:03.104Z,487.80
2018-09-04T04:20:49.396Z,681.40
2018-09-04T04:23:32.744Z,537.23
2018-09-04T04:26:14.021Z,439.63
2018-09-04T04:28:58.283Z,506.33
2018-09-04T04:31:41.463Z,1006.23
2018-09-04T04:34:24.416Z,624.53
2018-09-04T04:37:06.901Z,906.73
2018-09-04T04:39:48.930Z,1095.23
2018-09-04T04:42:33.480Z,785.53
2018-09-04T04:45:12.147Z,970.37
2018-09-04T04:47:54.645Z,1066.00
2018-09-04T04:50:38.798Z,1021.97
2018-09-04T04:53:21.616Z,1107.57
2018-09-04T04:56:05.461Z,1067.13
2018-09-04T04:58:44.937Z,942.17
2018-09-04T05:01:27.344Z,912.50
2018-09-04T05:04:13.393Z,915.57
2018-09-04T05:06:58.600Z,749.93
2018-09-04T05:09:39.581Z,516.13
2018-09-04T05:12:21.684Z,1110.10
2018-09-04T05:15:04.876Z,1017.63
2018-09-04T05:17:54.544Z,1090.53
2018-09-04T05:20:37.490Z,1002.50
2018-09-04T05:23:18.859Z,1090.30
2018-09-04T05:25:59.563Z,1022.63
2018-09-04T05:28:43.060Z,559.57
2018-09-04T05:31:30.257Z,327.40
2018-09-04T05:34:11.359Z,435.37
2018-09-04T05:36:53.057Z,392.40
2018-09-04T05:39:42.765Z,610.03
2018-09-04T05:42:34.283Z,824.80
2018-09-04T05:45:48.485Z,629.33
2018-09-04T05:48:30.002Z,942.33
2018-09-04T05:51:08.317Z,681.77
2018-09-04T05:53:47.358Z,205.53
2018-09-04T05:56:45.078Z,513.50
2018-09-04T05:59:31.694Z,255.93
2018-09-04T06:02:12.836Z,664.50
2018-09-04T06:05:01.399Z,139.00
2018-09-04T06:07:46.860Z,504.17
2018-09-04T06:10:31.457Z,673.37
2018-09-04T06:13:10.575Z,438.53
2018-09-04T06:15:56.097Z,852.33
2018-09-04T06:18:42.782Z,987.53
2018-09-04T06:21:27.620Z,938.20
2018-09-04T06:24:07.965Z,692.33
2018-09-04T06:26:53.461Z,489.53
2018-09-04T06:29:37.852Z,593.10
2018-09-04T06:32:16.618Z,442.97
2018-09-04T06:34:58.982Z,599.00
2018-09-04T06:37:44.504Z,466.53
2018-09-04T06:40:28.461Z,250.13
2018-09-04T06:43:11.926Z,670.27
2018-09-04T06:45:57.201Z,366.00
2018-09-04T06:48:45.258Z,105.27
2018-09-04T06:51:30.306Z,316.30
2018-09-04T06:54:16.540Z,479.57
2018-09-04T06:56:59.361Z,440.87
2018-09-04T06:59:40.198Z,468.67
2018-09-04T07:02:27.240Z,123.73
2018-09-04T07:05:10.979Z,102.27
2018-09-04T07:07:52.803Z,224.83
2018-09-04T07:10:34.199Z,244.40
2018-09-04T07:13:17.139Z,222.73
2018-09-04T07:15:59.860Z,339.20
2018-09-04T07:18:40.762Z,374.13
2018-09-04T07:21:27.242Z,222.27
2018-09-04T07:24:13.991Z,271.90
2018-09-04T07:26:57.599Z,154.47
2018-09-04T07:29:51.140Z,234.67
2018-09-04T07:32:36.425Z,360.00
2018-09-04T07:35:18.523Z,393.17
2018-09-04T07:38:00.941Z,397.27
2018-09-04T07:40:41.331Z,413.93
2018-09-04T07:43:21.303Z,415.87
2018-09-04T07:46:07.463Z,180.90
2018-09-04T07:48:46.422Z,284.60
2018-09-04T07:51:27.176Z,226.83
2018-09-04T07:54:07.757Z,208.87
2018-09-04T07:56:49.883Z,313.00
2018-09-04T07:59:35.239Z,300.00
2018-09-04T08:02:15.026Z,338.57
2018-09-04T08:04:59.446Z,192.17
2018-09-04T08:07:49.937Z,205.40
2018-09-04T08:10:32.865Z,188.73
2018-09-04T08:13:18.061Z,128.33
2018-09-04T08:16:03.565Z,467.90
2018-09-04T09:25:12.468Z,217.07
2018-09-04T09:40:56.982Z,526.03
2018-09-04T09:50:45.670Z,526.07
2018-09-04T10:18:27.203Z,623.90
2018-09-04T11:11:50.385Z,261.97
2018-09-04T11:14:44.266Z,565.53
2018-09-04T11:17:31.006Z,162.37
2018-09-04T11:20:23.120Z,306.63
2018-09-04T11:23:10.399Z,358.30
2018-09-04T11:26:09.044Z,313.73
2018-09-04T11:29:09.301Z,250.37
2018-09-04T11:32:09.663Z,281.73
2018-09-04T11:35:03.822Z,1140.43
2018-09-04T11:37:55.803Z,1506.10
2018-09-04T11:40:48.077Z,1807.73
2018-09-04T11:43:43.090Z,1347.63
2018-09-04T11:46:44.994Z,1273.87
2018-09-04T11:49:33.921Z,1365.37
2018-09-04T11:52:27.751Z,1116.40
2018-09-04T11:55:17.866Z,1185.67
2018-09-04T13:39:49.612Z,785.17
2018-09-04T13:42:36.787Z,658.45
2018-09-04T14:06:12.435Z,610.45
2018-09-04T14:09:07.914Z,599.70
2018-09-04T14:12:03.555Z,1269.73
2018-09-04T14:15:00.102Z,1965.58
2018-09-04T14:17:49.631Z,1765.28
2018-09-04T14:20:42.520Z,1561.38
2018-09-04T14:23:31.215Z,1068.75
2018-09-04T14:26:17.156Z,662.52
2018-09-04T14:29:11.292Z,1281.80
2018-09-04T14:31:56.317Z,1166.83
2018-09-04T14:34:45.578Z,795.92
2018-09-04T14:37:33.853Z,600.55
2018-09-04T14:40:25.661Z,1059.88
2018-09-04T14:43:15.433Z,857.47
2018-09-04T14:48:54.454Z,1512.97
2018-09-04T14:51:46.617Z,916.90
2018-09-04T14:54:34.449Z,1063.05
2018-09-04T14:57:24.962Z,670.00
2018-09-04T15:00:14.714Z,1743.35
2018-09-04T15:03:05.436Z,1878.68
2018-09-04T15:41:51.774Z,618.57
2018-09-04T15:48:30.473Z,865.13
2018-09-04T15:51:12.176Z,671.30
2018-09-04T15:53:57.871Z,722.60
2018-09-04T15:56:39.808Z,924.43
2018-09-04T15:59:20.890Z,1128.67
2018-09-04T16:02:00.493Z,704.93
2018-09-04T16:04:46.274Z,1206.53
2018-09-04T16:07:29.656Z,801.97
2018-09-04T16:10:09.520Z,825.33
2018-09-04T16:12:55.227Z,907.93
2018-09-04T16:15:46.760Z,505.33
2018-09-04T16:18:26.287Z,907.33
2018-09-04T16:21:10.975Z,906.00
2018-09-04T16:23:54.212Z,560.20
2018-09-04T16:26:32.849Z,180.10
2018-09-04T16:29:18.473Z,134.47
2018-09-04T16:31:59.333Z,1070.37
2018-09-04T16:34:39.580Z,1031.40
2018-09-04T16:37:22.813Z,984.20
2018-09-04T16:40:01.711Z,1036.00
2018-09-04T16:42:45.632Z,1104.87
2018-09-04T16:45:33.148Z,1056.93
2018-09-04T16:48:12.294Z,995.87
2018-09-04T16:50:54.813Z,962.93
2018-09-04T16:53:37.728Z,948.13
2018-09-04T16:56:19.631Z,942.00
2018-09-04T16:59:02.957Z,915.90
2018-09-04T17:01:45.652Z,885.60
2018-09-04T17:04:25.115Z,934.63
2018-09-04T17:07:06.713Z,954.70
2018-09-04T17:09:48.260Z,736.93
2018-09-04T17:12:31.493Z,869.03
2018-09-04T17:15:09.918Z,677.73
2018-09-04T17:17:52.729Z,800.60
2018-09-04T17:20:35.392Z,571.50
2018-09-04T17:23:19.277Z,484.63
2018-09-04T17:26:01.073Z,68.47
2018-09-04T17:28:44.217Z,244.07
2018-09-04T17:31:23.953Z,651.93
2018-09-04T17:34:06.020Z,907.07
2018-09-04T17:36:47.213Z,780.73
2018-09-04T17:39:30.328Z,755.93
2018-09-04T17:42:08.090Z,441.23
2018-09-04T17:44:48.872Z,154.63
2018-09-04T17:47:28.034Z,102.63
2018-09-04T17:50:09.860Z,206.70
2018-09-04T17:52:49.495Z,206.17
2018-09-04T17:55:31.657Z,174.87
2018-09-04T17:58:11.745Z,113.47
2018-09-04T18:01:02.899Z,73.23
2018-09-04T18:03:47.393Z,60.70
2018-09-04T18:06:28.594Z,66.97
2018-09-04T18:09:09.451Z,94.53
2018-09-04T18:11:51.111Z,124.57
2018-09-04T18:14:33.557Z,107.43
2018-09-04T18:17:18.089Z,91.47
2018-09-04T18:20:00.755Z,71.80
2018-09-04T18:22:44.506Z,153.83
2018-09-04T18:25:25.868Z,160.37
2018-09-04T18:28:06.972Z,219.67
2018-09-04T18:30:48.267Z,138.93
2018-09-04T18:33:34.976Z,328.10
2018-09-04T18:36:16.022Z,178.13
2018-09-04T18:38:56.008Z,268.07
2018-09-04T18:41:38.482Z,478.97
2018-09-04T18:44:16.595Z,465.67
2018-09-04T18:46:56.291Z,468.27
2018-09-04T18:49:36.795Z,476.47
2018-09-04T18:52:15.371Z,346.27
2018-09-04T18:54:55.159Z,406.83
2018-09-04T18:57:39.671Z,255.23
2018-09-04T19:00:20.626Z,247.50
2018-09-04T19:03:00.194Z,241.97
2018-09-04T19:05:42.030Z,265.67
2018-09-04T19:08:23.775Z,320.73
2018-09-04T19:11:04.549Z,260.87
2018-09-04T19:13:44.134Z,240.50
2018-09-04T19:16:31.333Z,249.23
2018-09-04T19:19:12.470Z,228.37
2018-09-04T19:21:52.878Z,226.47
2018-09-04T19:24:35.511Z,223.73
2018-09-04T19:27:16.891Z,196.17
2018-09-04T19:29:58.839Z,186.13
2018-09-04T19:32:37.170Z,211.80
2018-09-04T19:35:17.635Z,245.87
2018-09-04T19:37:57.679Z,220.73
2018-09-04T19:40:40.131Z,238.50
2018-09-04T19:43:19.344Z,230.27
2018-09-04T19:45:59.651Z,279.63
2018-09-04T19:48:40.069Z,322.30
2018-09-04T19:51:20.711Z,390.00
2018-09-04T20:14:45.153Z,393.43
2018-09-04T20:17:26.007Z,483.83
2018-09-04T20:20:05.610Z,445.07
2018-09-04T20:22:46.610Z,356.97
2018-09-04T20:25:29.208Z,273.87
2018-09-04T20:28:09.114Z,182.27
2018-09-04T20:30:49.886Z,140.23
2018-09-04T20:33:29.409Z,109.13
2018-09-04T20:36:08.870Z,156.20
2018-09-04T20:38:48.072Z,114.80
2018-09-04T20:41:30.246Z,135.53
2018-09-04T20:44:09.312Z,172.13
2018-09-04T20:46:48.129Z,174.90
2018-09-04T20:49:29.024Z,163.90
2018-09-04T20:52:10.127Z,130.63
2018-09-04T20:54:49.408Z,116.17
2018-09-04T20:57:32.312Z,110.50
2018-09-04T21:00:25.127Z,137.40
2018-09-04T21:03:16.066Z,168.33
2018-09-04T21:06:06.972Z,150.60
2018-09-04T21:09:00.445Z,147.23
2018-09-04T21:11:41.591Z,236.67
2018-09-04T21:14:21.208Z,206.37
2018-09-04T21:17:00.496Z,190.83
2018-09-04T21:19:40.365Z,173.00
2018-09-04T21:22:20.950Z,160.40
2018-09-04T21:25:00.608Z,194.23
2018-09-04T21:27:40.162Z,336.63
2018-09-04T21:30:19.093Z,469.93
2018-09-04T21:32:58.836Z,348.73
2018-09-04T21:35:38.540Z,307.33
2018-09-04T21:38:18.867Z,359.53
2018-09-04T21:40:59.325Z,325.33
2018-09-04T21:43:39.768Z,502.53
2018-09-04T21:46:20.331Z,358.77
2018-09-04T21:49:00.046Z,503.60
2018-09-04T21:51:41.230Z,498.33
2018-09-04T21:54:21.584Z,552.73
2018-09-04T21:57:01.268Z,386.23
2018-09-04T21:59:40.187Z,387.80
2018-09-04T22:02:21.769Z,361.43
2018-09-04T22:05:01.093Z,277.33
2018-09-04T22:07:41.905Z,184.33
2018-09-04T22:10:23.189Z,209.70
2018-09-04T22:13:03.784Z,213.50
2018-09-04T22:15:43.847Z,201.70
2018-09-04T22:18:23.346Z,227.17
2018-09-04T22:21:03.145Z,248.87
2018-09-04T22:23:43.367Z,230.47
2018-09-04T22:26:26.554Z,259.77
2018-09-04T22:29:06.609Z,220.77
2018-09-04T22:31:47.593Z,246.70
2018-09-04T22:34:30.190Z,239.50
2018-09-04T22:37:11.424Z,298.77
2018-09-04T22:39:50.968Z,271.00
2018-09-04T22:42:35.308Z,230.97
2018-09-04T22:45:15.128Z,219.50
2018-09-04T22:47:54.406Z,209.77
2018-09-04T22:50:36.512Z,255.33
2018-09-04T22:53:16.123Z,294.67
2018-09-04T22:55:56.034Z,177.43
2018-09-04T22:58:36.763Z,171.80
2018-09-04T23:01:17.803Z,174.60
2018-09-04T23:03:56.267Z,144.40
2018-09-04T23:06:37.692Z,153.90
2018-09-04T23:09:18.950Z,200.57
2018-09-04T23:11:56.675Z,174.17
2018-09-04T23:14:37.326Z,206.77
2018-09-04T23:17:18.617Z,265.13
2018-09-04T23:19:57.928Z,343.70
2018-09-04T23:22:38.031Z,261.53
2018-09-04T23:25:16.848Z,240.07
2018-09-04T23:27:56.249Z,183.13
2018-09-04T23:30:35.571Z,184.30
2018-09-04T23:33:14.307Z,239.67
2018-09-04T23:35:53.350Z,253.00
2018-09-04T23:38:33.264Z,310.57
2018-09-04T23:41:12.209Z,220.27
2018-09-04T23:43:51.486Z,240.50
2018-09-04T23:46:32.590Z,216.77
2018-09-04T23:49:14.341Z,220.53
2018-09-04T23:51:54.668Z,202.90
2018-09-04T23:54:34.214Z,238.83
2018-09-04T23:57:15.283Z,402.97
2018-09-04T23:59:54.649Z,498.90
